Time;durP1;ratioP1;P1;durP2;ratioP2;P2;SDS_P1;SDS_P2;PMS_P1;PMS_P2;Temp;Humidity;BMP_temperature;BMP_pressure;BME280_temperature;BME280_humidity;BME280_pressure;Samples;Min_cycle;Max_cycle;Signal;HPM_P1;HPM_P2
2023/05/27 00:00:01;;;;;;;4.72;4.22;;;21.00;96.70;;;;;;4960088;28;20130;-69
2023/05/27 00:02:30;;;;;;;7.32;4.95;;;20.90;96.70;;;;;;4963328;28;20077;-68
2023/05/27 00:04:59;;;;;;;6.57;4.32;;;20.90;96.70;;;;;;4961715;28;20039;-69
2023/05/27 00:37:22;;;;;;;5.40;4.63;;;20.60;96.70;;;;;;4960341;28;20714;-69
2023/05/27 00:39:53;;;;;;;5.30;4.70;;;20.60;96.70;;;;;;4974766;28;20057;-69
2023/05/27 00:42:23;;;;;;;5.38;4.78;;;20.50;96.70;;;;;;4964622;28;20109;-69
2023/05/27 00:44:51;;;;;;;6.50;5.03;;;20.50;96.70;;;;;;4984887;28;20046;-69
2023/05/27 00:47:21;;;;;;;6.45;4.57;;;20.40;96.70;;;;;;4972238;28;20073;-68
2023/05/27 01:06:56;;;;;;;5.80;3.85;;;20.30;96.70;;;;;;4981726;28;20045;-69
2023/05/27 01:09:31;;;;;;;5.50;3.75;;;20.20;96.70;;;;;;4982418;28;20137;-68
2023/05/27 01:12:07;;;;;;;4.47;3.72;;;20.20;96.70;;;;;;4984662;28;20046;-69
2023/05/27 01:14:40;;;;;;;5.95;4.47;;;20.20;96.70;;;;;;4967896;28;20043;-69
2023/05/27 01:17:09;;;;;;;5.05;4.05;;;20.10;96.70;;;;;;4984571;28;20120;-68
2023/05/27 03:21:52;;;;;;;6.90;4.00;;;18.80;96.70;;;;;;4967938;28;20061;-68
2023/05/27 03:24:31;;;;;;;5.00;4.10;;;18.80;96.70;;;;;;4949314;28;20104;-68
2023/05/27 03:27:11;;;;;;;6.97;4.85;;;18.80;96.70;;;;;;4964909;28;20512;-67
2023/05/27 03:29:44;;;;;;;6.70;4.50;;;18.90;96.70;;;;;;4962544;28;20050;-68
2023/05/27 03:32:17;;;;;;;6.97;4.30;;;18.90;96.70;;;;;;4961786;28;20464;-67
2023/05/27 03:47:01;;;;;;;7.53;4.30;;;18.60;96.70;;;;;;4965526;28;20065;-67
2023/05/27 04:22:54;;;;;;;5.07;3.75;;;18.60;96.70;;;;;;4968053;28;20050;-68
2023/05/27 04:25:23;;;;;;;8.20;3.95;;;18.70;96.70;;;;;;4968300;28;20042;-68
2023/05/27 04:28:16;;;;;;;3.85;3.53;;;18.70;96.70;;;;;;4968623;28;20058;-68
2023/05/27 04:30:48;;;;;;;5.88;3.90;;;18.70;96.70;;;;;;4959709;28;20137;-68
2023/05/27 04:33:28;;;;;;;6.75;4.47;;;18.70;96.70;;;;;;4966968;28;20054;-68
2023/05/27 04:40:26;;;;;;;5.82;4.07;;;18.80;96.70;;;;;;4983119;28;20062;-68
2023/05/27 05:00:22;;;;;;;5.75;4.32;;;18.60;96.70;;;;;;4982615;28;20535;-69
2023/05/27 05:03:00;;;;;;;7.22;4.15;;;18.70;96.70;;;;;;4962533;28;20050;-69
2023/05/27 05:05:31;;;;;;;4.65;4.20;;;18.70;96.70;;;;;;4965435;28;20065;-68
2023/05/27 05:08:00;;;;;;;6.70;4.38;;;18.70;96.70;;;;;;4964226;28;20495;-69
2023/05/27 05:10:30;;;;;;;4.80;4.22;;;18.70;96.70;;;;;;4965502;28;20603;-69
2023/05/27 05:12:59;;;;;;;11.93;5.20;;;18.80;96.70;;;;;;4966859;28;20066;-68
2023/05/27 05:15:30;;;;;;;7.22;4.70;;;18.80;96.70;;;;;;4961323;28;20106;-69
2023/05/27 05:17:58;;;;;;;11.30;5.18;;;18.90;96.70;;;;;;4964394;28;20050;-68
2023/05/27 05:20:29;;;;;;;6.18;4.43;;;18.90;96.70;;;;;;4962620;28;20058;-68
2023/05/27 05:22:57;;;;;;;8.07;4.82;;;18.90;96.70;;;;;;4959103;28;20045;-68
2023/05/27 05:25:26;;;;;;;11.88;6.43;;;18.90;96.70;;;;;;4963004;28;20055;-68
2023/05/27 05:27:56;;;;;;;6.78;5.90;;;19.00;96.70;;;;;;4961047;28;21122;-68
2023/05/27 05:30:25;;;;;;;10.60;7.90;;;19.10;96.70;;;;;;4955966;28;20046;-68
2023/05/27 05:32:55;;;;;;;11.85;8.88;;;19.20;96.70;;;;;;4965090;28;20078;-68
2023/05/27 05:35:27;;;;;;;13.50;9.68;;;19.30;96.70;;;;;;4962100;28;20128;-68
2023/05/27 05:38:04;;;;;;;13.73;8.18;;;19.30;96.70;;;;;;4965836;28;20050;-68
2023/05/27 05:40:33;;;;;;;13.18;9.77;;;19.30;96.70;;;;;;4962226;28;20054;-68
2023/05/27 05:43:15;;;;;;;11.32;9.30;;;19.40;96.70;;;;;;4964155;28;21421;-68
2023/05/27 05:45:46;;;;;;;12.50;10.27;;;19.50;96.70;;;;;;4966305;28;20054;-68
2023/05/27 05:48:18;;;;;;;10.30;8.77;;;19.50;96.70;;;;;;4943949;28;20121;-68
2023/05/27 05:50:46;;;;;;;10.25;8.63;;;19.60;96.70;;;;;;4942493;28;20105;-68
2023/05/27 05:53:15;;;;;;;10.18;7.88;;;19.60;96.70;;;;;;4965028;28;20090;-68
2023/05/27 05:55:44;;;;;;;7.82;6.88;;;19.70;96.70;;;;;;4963422;28;20718;-68
2023/05/27 05:58:13;;;;;;;10.45;7.15;;;19.70;96.70;;;;;;4964947;28;20145;-68
2023/05/27 06:00:42;;;;;;;8.20;7.30;;;19.70;96.70;;;;;;4967520;28;20046;-69
2023/05/27 06:03:30;;;;;;;8.15;6.85;;;19.80;96.70;;;;;;4952066;28;20056;-69
2023/05/27 06:06:00;;;;;;;9.63;6.38;;;19.90;96.70;;;;;;4963782;28;20050;-69
2023/05/27 06:08:28;;;;;;;10.27;5.50;;;20.00;96.70;;;;;;4965151;28;20058;-69
2023/05/27 06:11:10;;;;;;;7.47;5.30;;;20.10;96.70;;;;;;4963542;28;20048;-69
2023/05/27 06:13:40;;;;;;;9.32;5.57;;;20.20;96.70;;;;;;4966356;28;20053;-70
2023/05/27 06:16:09;;;;;;;5.75;5.15;;;20.30;96.70;;;;;;4941359;29;20055;-70
2023/05/27 06:18:39;;;;;;;14.57;7.07;;;20.40;96.70;;;;;;4925139;29;20138;-68
2023/05/27 06:21:08;;;;;;;6.28;5.03;;;20.50;96.70;;;;;;4909471;29;20071;-68
2023/05/27 06:23:56;;;;;;;6.82;4.28;;;20.60;96.70;;;;;;4940928;29;20550;-69
2023/05/27 06:26:25;;;;;;;5.25;4.38;;;20.70;96.70;;;;;;4947690;28;20146;-69
2023/05/27 06:28:56;;;;;;;6.00;4.90;;;20.80;96.70;;;;;;4925241;29;20047;-69
2023/05/27 06:31:27;;;;;;;9.23;4.60;;;20.90;96.70;;;;;;4923677;29;20051;-69
2023/05/27 06:33:57;;;;;;;5.63;4.20;;;21.10;96.70;;;;;;4924331;29;20060;-70
2023/05/27 06:36:26;;;;;;;7.07;4.70;;;21.20;96.70;;;;;;4925373;29;20055;-69
2023/05/27 06:38:55;;;;;;;5.32;4.38;;;21.30;96.70;;;;;;4923991;29;20720;-69
2023/05/27 06:41:24;;;;;;;5.28;4.10;;;21.40;96.70;;;;;;4924907;29;20417;-68
2023/05/27 06:44:12;;;;;;;5.57;4.47;;;21.40;96.70;;;;;;4927077;29;20545;-69
2023/05/27 06:46:52;;;;;;;7.75;4.97;;;21.60;96.70;;;;;;4938487;28;20049;-68
2023/05/27 06:49:30;;;;;;;6.65;5.35;;;21.70;96.70;;;;;;4964270;28;20054;-68
2023/05/27 06:52:02;;;;;;;9.40;8.23;;;21.80;96.70;;;;;;4963770;28;20145;-69
2023/05/27 06:54:36;;;;;;;8.35;7.13;;;22.00;96.70;;;;;;4963845;28;20183;-69
2023/05/27 06:57:30;;;;;;;8.20;6.38;;;22.10;96.70;;;;;;4951982;28;20050;-69
2023/05/27 07:00:09;;;;;;;11.38;5.93;;;22.20;96.70;;;;;;4958541;28;20062;-69
2023/05/27 07:02:46;;;;;;;8.82;6.07;;;22.30;96.70;;;;;;4961579;28;20050;-69
2023/05/27 07:05:15;;;;;;;6.90;5.72;;;22.40;96.70;;;;;;4959293;28;20069;-69
2023/05/27 07:07:44;;;;;;;7.55;5.07;;;22.50;96.70;;;;;;4982265;28;20050;-70
2023/05/27 07:10:13;;;;;;;8.30;5.10;;;22.50;96.70;;;;;;4963125;28;20050;-70
2023/05/27 07:12:41;;;;;;;9.65;5.10;;;22.60;96.70;;;;;;4954744;28;20465;-67
2023/05/27 07:15:39;;;;;;;7.07;4.95;;;22.60;96.70;;;;;;4963185;28;20053;-70
2023/05/27 07:18:09;;;;;;;5.53;4.68;;;22.70;96.70;;;;;;4964603;28;20141;-70
2023/05/27 07:20:39;;;;;;;5.03;4.43;;;22.90;96.70;;;;;;4968029;28;20133;-70
2023/05/27 07:23:11;;;;;;;4.88;3.85;;;23.00;96.70;;;;;;4983577;28;20129;-70
2023/05/27 07:25:41;;;;;;;6.78;3.80;;;23.20;96.70;;;;;;4955374;28;20050;-70
2023/05/27 07:28:09;;;;;;;4.88;4.00;;;23.30;96.70;;;;;;4971305;28;20057;-70
2023/05/27 07:30:44;;;;;;;5.95;3.60;;;23.40;96.70;;;;;;4971420;28;20088;-70
2023/05/27 07:33:14;;;;;;;4.53;3.58;;;23.60;96.70;;;;;;4988314;28;20046;-70
2023/05/27 07:35:44;;;;;;;6.72;4.07;;;23.60;96.70;;;;;;4987769;28;20038;-70
2023/05/27 07:38:12;;;;;;;8.88;7.97;;;23.70;96.70;;;;;;4988539;28;20043;-71
2023/05/27 07:40:40;;;;;;;6.38;5.57;;;23.80;96.70;;;;;;4987981;28;20065;-71
2023/05/27 07:43:08;;;;;;;6.35;3.75;;;24.00;96.70;;;;;;4965044;28;20134;-71
2023/05/27 07:45:36;;;;;;;4.50;3.75;;;24.10;96.70;;;;;;4970772;28;20050;-69
2023/05/27 07:48:05;;;;;;;5.07;3.83;;;24.10;96.70;;;;;;4971035;28;20104;-70
2023/05/27 07:50:33;;;;;;;4.95;3.53;;;24.10;96.70;;;;;;4971520;28;20161;-70
2023/05/27 07:53:06;;;;;;;4.40;3.95;;;24.20;96.70;;;;;;4966295;28;20078;-70
2023/05/27 07:55:37;;;;;;;6.22;3.75;;;24.20;96.70;;;;;;4969652;28;20104;-70
2023/05/27 07:58:05;;;;;;;5.82;3.80;;;24.20;96.70;;;;;;4953942;28;20050;-71
2023/05/27 08:00:46;;;;;;;6.45;3.70;;;24.30;96.70;;;;;;4966048;28;20408;-70
2023/05/27 08:03:14;;;;;;;6.90;3.70;;;24.40;96.70;;;;;;4988621;28;20080;-70
2023/05/27 08:05:59;;;;;;;5.68;3.88;;;24.50;96.70;;;;;;4960021;28;20047;-70
2023/05/27 08:09:01;;;;;;;9.55;7.88;;;24.70;96.70;;;;;;4934128;28;20061;-70
2023/05/27 08:11:30;;;;;;;5.28;4.25;;;24.80;96.70;;;;;;4968725;28;20133;-71
2023/05/27 08:14:16;;;;;;;6.38;4.03;;;24.90;96.70;;;;;;4983738;28;20120;-71
2023/05/27 08:16:59;;;;;;;4.38;3.97;;;25.00;96.70;;;;;;4988536;28;20095;-70
2023/05/27 08:19:46;;;;;;;4.35;3.92;;;25.10;96.70;;;;;;4988663;28;20065;-71
2023/05/27 08:22:29;;;;;;;5.55;4.10;;;25.30;96.70;;;;;;4970266;28;20058;-71
2023/05/27 08:25:25;;;;;;;4.93;3.67;;;25.20;96.70;;;;;;4970576;28;20046;-72
2023/05/27 08:28:01;;;;;;;5.50;4.13;;;25.30;96.70;;;;;;4985686;28;20053;-71
2023/05/27 08:30:50;;;;;;;5.78;4.07;;;25.40;96.70;;;;;;4935017;28;20058;-68
2023/05/27 08:33:25;;;;;;;4.97;3.72;;;25.50;96.70;;;;;;4985741;28;20038;-69
2023/05/27 08:35:54;;;;;;;6.35;3.95;;;25.60;96.70;;;;;;4961801;28;20074;-70
2023/05/27 08:38:22;;;;;;;4.57;3.55;;;25.70;96.70;;;;;;4962953;28;20043;-72
2023/05/27 08:40:55;;;;;;;4.38;3.40;;;25.80;96.70;;;;;;4963991;28;20389;-68
2023/05/27 08:43:24;;;;;;;5.13;3.63;;;26.00;96.70;;;;;;4964375;28;20066;-69
2023/05/27 08:45:53;;;;;;;5.25;3.45;;;26.30;96.70;;;;;;4946239;28;20042;-69
2023/05/27 08:48:22;;;;;;;4.57;3.28;;;26.40;96.70;;;;;;4967136;28;20057;-69
2023/05/27 08:50:50;;;;;;;5.47;3.85;;;26.50;96.70;;;;;;4967884;28;20138;-68
2023/05/27 08:53:20;;;;;;;5.35;3.45;;;26.40;96.70;;;;;;4968003;28;20051;-69
2023/05/27 08:55:51;;;;;;;6.07;4.18;;;26.20;96.70;;;;;;4965883;28;20428;-68
2023/05/27 08:58:22;;;;;;;7.32;3.95;;;26.20;96.70;;;;;;4966194;28;20050;-69
2023/05/27 09:00:53;;;;;;;4.82;3.58;;;26.20;96.70;;;;;;4961427;28;20109;-70
2023/05/27 09:03:27;;;;;;;4.47;3.53;;;26.00;96.70;;;;;;4949755;28;20046;-69
2023/05/27 09:05:57;;;;;;;5.05;3.08;;;25.90;96.70;;;;;;4962226;28;20054;-69
2023/05/27 09:08:26;;;;;;;5.40;3.80;;;25.80;96.70;;;;;;4984333;28;20508;-69
2023/05/27 09:11:21;;;;;;;6.57;3.45;;;25.90;96.70;;;;;;4983856;28;20074;-68
2023/05/27 09:13:54;;;;;;;9.68;3.70;;;25.90;96.70;;;;;;4966268;28;20601;-68
2023/05/27 09:16:23;;;;;;;5.78;4.13;;;25.90;96.70;;;;;;4967144;28;20058;-69
2023/05/27 09:18:52;;;;;;;7.38;3.72;;;25.90;96.70;;;;;;4984268;28;20069;-68
2023/05/27 09:21:20;;;;;;;5.75;3.65;;;25.90;96.70;;;;;;4961471;28;20062;-68
2023/05/27 09:23:49;;;;;;;6.30;3.38;;;25.90;96.70;;;;;;4965996;28;20054;-69
2023/05/27 09:26:17;;;;;;;5.13;3.60;;;25.90;96.70;;;;;;4965054;28;20138;-69
2023/05/27 09:28:46;;;;;;;6.38;4.85;;;25.90;96.70;;;;;;4964633;28;21352;-69
2023/05/27 09:31:16;;;;;;;6.25;3.83;;;26.00;96.70;;;;;;4965828;28;20141;-69
2023/05/27 09:33:45;;;;;;;4.20;3.80;;;26.00;96.70;;;;;;4963986;28;20145;-69
2023/05/27 09:36:19;;;;;;;5.10;3.72;;;26.10;96.70;;;;;;4965718;28;20572;-69
2023/05/27 09:38:48;;;;;;;5.72;4.00;;;26.20;96.70;;;;;;4965027;28;20139;-70
2023/05/27 09:41:24;;;;;;;7.07;3.72;;;26.30;96.70;;;;;;4961939;28;20057;-69
2023/05/27 09:43:57;;;;;;;7.25;4.07;;;26.40;96.70;;;;;;4958350;28;20051;-70
2023/05/27 09:46:27;;;;;;;4.53;3.95;;;26.50;96.70;;;;;;4963363;28;20386;-70
2023/05/27 09:48:58;;;;;;;6.15;4.05;;;26.60;96.70;;;;;;4962565;28;20074;-70
2023/05/27 09:51:27;;;;;;;5.45;3.92;;;26.70;96.70;;;;;;4963447;28;20129;-69
2023/05/27 09:53:57;;;;;;;4.35;3.53;;;26.80;96.70;;;;;;4958791;28;20063;-70
2023/05/27 09:56:27;;;;;;;5.28;3.80;;;26.80;96.70;;;;;;4963119;28;20051;-68
2023/05/27 09:58:56;;;;;;;5.85;4.15;;;26.90;96.70;;;;;;4963831;28;20081;-70
2023/05/27 10:01:28;;;;;;;6.40;4.13;;;26.90;96.70;;;;;;4964742;28;20499;-69
2023/05/27 10:03:58;;;;;;;6.25;3.97;;;27.00;96.70;;;;;;4964690;28;21173;-69
2023/05/27 10:06:27;;;;;;;6.07;4.30;;;27.20;96.70;;;;;;4961870;28;20043;-69
2023/05/27 10:08:56;;;;;;;16.42;13.43;;;27.20;96.70;;;;;;4964730;28;20546;-69
2023/05/27 10:11:28;;;;;;;5.95;4.68;;;27.30;96.70;;;;;;4964861;28;20057;-69
2023/05/27 10:13:57;;;;;;;7.70;4.90;;;27.50;96.70;;;;;;4964207;28;20038;-69
2023/05/27 10:16:28;;;;;;;6.00;4.53;;;27.50;96.70;;;;;;4963850;28;20047;-70
2023/05/27 10:18:57;;;;;;;7.03;4.30;;;27.70;96.70;;;;;;4962928;28;21335;-69
2023/05/27 10:21:28;;;;;;;6.88;4.53;;;27.60;96.70;;;;;;4962529;28;20062;-68
2023/05/27 10:23:57;;;;;;;10.45;4.32;;;27.60;96.70;;;;;;4964044;28;20043;-69
2023/05/27 10:26:33;;;;;;;6.00;4.47;;;27.80;96.70;;;;;;4963933;28;20058;-69
2023/05/27 10:29:09;;;;;;;10.00;4.50;;;28.00;96.70;;;;;;4961625;28;20042;-69
2023/05/27 10:31:45;;;;;;;6.88;4.35;;;27.80;96.70;;;;;;4960907;28;20566;-70
2023/05/27 10:34:16;;;;;;;5.20;3.80;;;27.70;96.70;;;;;;4961901;28;20047;-69
2023/05/27 10:36:46;;;;;;;5.55;4.32;;;27.90;96.70;;;;;;4956942;28;20053;-70
2023/05/27 10:39:16;;;;;;;8.75;4.45;;;28.00;96.70;;;;;;4956360;28;20117;-70
2023/05/27 10:41:50;;;;;;;5.85;4.15;;;28.30;96.70;;;;;;4955087;28;20054;-70
2023/05/27 10:44:28;;;;;;;6.40;4.43;;;28.30;96.70;;;;;;4956712;28;20054;-70
2023/05/27 10:47:02;;;;;;;6.03;4.30;;;28.40;96.70;;;;;;4955560;28;20043;-70
2023/05/27 10:49:38;;;;;;;5.40;4.15;;;28.30;96.70;;;;;;4955702;28;20136;-69
2023/05/27 10:52:12;;;;;;;5.85;3.95;;;28.30;96.70;;;;;;4937607;28;20059;-69
2023/05/27 10:54:42;;;;;;;7.45;3.78;;;28.60;96.70;;;;;;4954688;28;20074;-70
2023/05/27 10:57:11;;;;;;;6.47;4.15;;;28.60;96.70;;;;;;4956661;28;20347;-70
2023/05/27 10:59:45;;;;;;;4.75;3.72;;;28.70;96.70;;;;;;4956682;28;20043;-70
2023/05/27 11:02:16;;;;;;;5.43;3.85;;;28.90;96.70;;;;;;4955350;28;20175;-70
2023/05/27 11:04:44;;;;;;;4.60;4.03;;;29.10;96.70;;;;;;4962596;28;20061;-70
2023/05/27 11:07:17;;;;;;;4.57;3.90;;;29.10;96.70;;;;;;4962166;28;20090;-69
2023/05/27 11:09:48;;;;;;;6.30;3.63;;;29.30;96.70;;;;;;4956654;28;20122;-70
2023/05/27 11:12:16;;;;;;;4.22;3.80;;;29.30;96.70;;;;;;4958944;28;20058;-69
2023/05/27 11:14:46;;;;;;;4.70;3.67;;;29.40;96.70;;;;;;4958208;28;20046;-69
2023/05/27 11:17:17;;;;;;;6.50;3.78;;;29.20;96.70;;;;;;4957449;28;20496;-70
2023/05/27 11:19:46;;;;;;;4.95;3.35;;;29.20;96.70;;;;;;4944141;28;20054;-69
2023/05/27 11:22:16;;;;;;;5.20;3.63;;;29.40;96.70;;;;;;4971618;28;20062;-70
2023/05/27 11:24:56;;;;;;;5.20;3.78;;;29.60;96.70;;;;;;4979106;28;20058;-70
2023/05/27 11:27:31;;;;;;;4.28;3.80;;;29.40;96.70;;;;;;4959737;28;20061;-69
2023/05/27 11:30:03;;;;;;;7.68;4.30;;;29.50;96.70;;;;;;4976338;28;20117;-69
2023/05/27 11:32:35;;;;;;;5.93;5.03;;;29.70;96.70;;;;;;4956953;28;20069;-69
2023/05/27 11:35:05;;;;;;;4.78;3.92;;;29.80;96.70;;;;;;4977198;28;20050;-72
2023/05/27 11:37:37;;;;;;;6.22;4.43;;;29.90;96.70;;;;;;4982342;28;20097;-70
2023/05/27 11:40:12;;;;;;;5.50;3.90;;;29.70;96.70;;;;;;4964092;28;20088;-70
2023/05/27 11:42:44;;;;;;;7.65;4.00;;;29.40;96.70;;;;;;4982009;28;20137;-70
2023/05/27 11:45:17;;;;;;;5.28;3.55;;;29.40;96.70;;;;;;4964994;28;20550;-70
2023/05/27 11:47:53;;;;;;;6.88;3.95;;;29.60;96.70;;;;;;4963364;28;20052;-70
2023/05/27 11:50:22;;;;;;;4.05;3.60;;;29.70;96.70;;;;;;4965352;28;20133;-70
2023/05/27 11:52:52;;;;;;;5.20;4.22;;;29.60;96.70;;;;;;4965114;28;20074;-69
2023/05/27 11:55:21;;;;;;;4.03;3.60;;;29.40;96.70;;;;;;4965250;28;20050;-70
2023/05/27 11:57:50;;;;;;;5.88;3.85;;;29.50;96.70;;;;;;4964549;28;20093;-69
2023/05/27 12:00:19;;;;;;;5.45;3.80;;;29.60;96.70;;;;;;4982329;28;20046;-69
2023/05/27 12:02:49;;;;;;;5.03;3.83;;;29.40;96.70;;;;;;4982092;28;20043;-69
2023/05/27 12:05:18;;;;;;;5.93;3.95;;;29.60;96.70;;;;;;4981186;28;20050;-69
2023/05/27 12:07:50;;;;;;;5.38;3.65;;;30.00;96.70;;;;;;4980616;28;20042;-69
2023/05/27 12:10:19;;;;;;;5.10;3.50;;;30.20;96.70;;;;;;4979785;28;20034;-69
2023/05/27 12:12:48;;;;;;;4.40;3.83;;;30.30;96.70;;;;;;4959874;28;20038;-70
2023/05/27 12:15:16;;;;;;;4.70;4.20;;;30.30;96.70;;;;;;4961116;28;20042;-69
2023/05/27 12:17:45;;;;;;;4.18;3.25;;;30.30;96.70;;;;;;4962116;28;20054;-69
2023/05/27 12:20:15;;;;;;;4.43;3.90;;;30.30;96.70;;;;;;4964974;28;20042;-70
2023/05/27 12:22:44;;;;;;;7.10;3.55;;;30.40;96.70;;;;;;4980972;28;20058;-69
2023/05/27 12:25:12;;;;;;;5.68;3.60;;;30.50;96.70;;;;;;4980359;28;20038;-69
2023/05/27 12:27:41;;;;;;;4.50;3.80;;;30.50;96.70;;;;;;4959733;28;20354;-69
2023/05/27 12:30:10;;;;;;;5.20;3.90;;;30.60;96.70;;;;;;4979564;28;20046;-68
2023/05/27 12:32:39;;;;;;;4.53;3.97;;;30.60;96.70;;;;;;4977832;28;20144;-69
2023/05/27 12:35:09;;;;;;;4.50;2.92;;;30.60;96.70;;;;;;4978775;28;20050;-69
2023/05/27 12:37:39;;;;;;;5.05;3.20;;;30.60;96.70;;;;;;4980637;28;20042;-69
2023/05/27 12:40:14;;;;;;;4.47;3.47;;;30.50;96.70;;;;;;4959533;28;20057;-69
2023/05/27 12:42:43;;;;;;;6.18;3.15;;;30.60;96.70;;;;;;4962426;28;20112;-69
2023/05/27 12:45:12;;;;;;;3.53;3.22;;;30.60;96.70;;;;;;4962960;28;20041;-69
2023/05/27 12:47:41;;;;;;;4.43;3.22;;;30.60;96.70;;;;;;4980020;28;20051;-69
2023/05/27 12:50:10;;;;;;;4.72;3.10;;;30.60;96.70;;;;;;4985591;28;20046;-69
2023/05/27 12:52:45;;;;;;;4.10;3.00;;;30.50;96.70;;;;;;4984807;28;20043;-69
2023/05/27 12:55:16;;;;;;;8.32;4.35;;;30.30;96.70;;;;;;4963878;28;20112;-69
2023/05/27 12:57:46;;;;;;;5.53;4.40;;;30.30;96.70;;;;;;4950817;28;20092;-69
2023/05/27 13:00:19;;;;;;;8.50;3.78;;;30.40;96.70;;;;;;4984671;28;20050;-69
2023/05/27 13:02:48;;;;;;;4.78;3.42;;;30.70;96.70;;;;;;4983573;28;20057;-69
2023/05/27 13:05:17;;;;;;;3.15;2.78;;;31.10;96.70;;;;;;4966728;28;20054;-69
2023/05/27 13:07:56;;;;;;;4.75;2.95;;;31.50;96.70;;;;;;4966919;28;20411;-68
2023/05/27 13:10:25;;;;;;;5.07;3.60;;;31.70;96.70;;;;;;4985112;28;20053;-69
2023/05/27 13:12:53;;;;;;;8.80;5.03;;;31.70;96.70;;;;;;4978710;28;20484;-69
2023/05/27 13:15:23;;;;;;;3.70;3.40;;;31.80;96.70;;;;;;4964893;28;20495;-70
2023/05/27 13:17:54;;;;;;;4.15;3.53;;;31.80;96.70;;;;;;4983125;28;20054;-69
2023/05/27 13:20:23;;;;;;;4.68;3.33;;;31.80;96.70;;;;;;4984195;28;20527;-69
2023/05/27 13:22:54;;;;;;;6.97;3.30;;;31.70;96.70;;;;;;4961343;28;20058;-69
2023/05/27 13:25:22;;;;;;;5.55;3.55;;;31.90;96.70;;;;;;4966309;28;20058;-69
2023/05/27 13:27:53;;;;;;;4.00;3.15;;;32.00;96.70;;;;;;4983475;28;20137;-69
2023/05/27 13:30:22;;;;;;;5.95;3.28;;;32.20;96.70;;;;;;4966911;28;20144;-69
2023/05/27 13:32:51;;;;;;;3.42;3.13;;;32.50;96.70;;;;;;4967085;28;20690;-69
2023/05/27 13:35:19;;;;;;;3.50;2.80;;;32.60;96.70;;;;;;4984653;28;20043;-69
2023/05/27 13:37:48;;;;;;;5.82;2.85;;;32.80;96.70;;;;;;4984620;28;20038;-69
2023/05/27 13:40:18;;;;;;;4.05;3.42;;;33.00;96.70;;;;;;4983730;28;20057;-72
2023/05/27 13:42:47;;;;;;;4.22;3.05;;;33.10;96.70;;;;;;4964485;28;20121;-68
2023/05/27 13:45:15;;;;;;;3.45;3.15;;;33.30;96.70;;;;;;4978759;28;20039;-70
2023/05/27 13:47:44;;;;;;;7.65;6.43;;;33.40;96.70;;;;;;4964705;28;20089;-69
2023/05/27 13:50:12;;;;;;;4.40;3.95;;;33.50;96.70;;;;;;4982692;28;20108;-69
2023/05/27 13:52:41;;;;;;;3.83;3.20;;;33.60;96.70;;;;;;4983225;28;20044;-69
2023/05/27 13:55:09;;;;;;;5.65;4.00;;;33.70;96.70;;;;;;4979685;28;20049;-69
2023/05/27 13:57:40;;;;;;;5.55;3.25;;;34.00;96.70;;;;;;4978971;28;20052;-69
2023/05/27 14:00:09;;;;;;;3.30;3.00;;;34.10;96.70;;;;;;4977916;28;20093;-69
2023/05/27 14:02:37;;;;;;;6.20;3.55;;;34.30;96.70;;;;;;4978030;28;20504;-69
2023/05/27 14:05:07;;;;;;;4.78;3.38;;;34.60;96.70;;;;;;4960306;28;20053;-69
2023/05/27 14:07:40;;;;;;;4.70;3.13;;;34.70;96.70;;;;;;4976962;28;20069;-69
2023/05/27 14:10:10;;;;;;;4.72;3.45;;;34.80;96.70;;;;;;4975363;28;20038;-68
2023/05/27 14:12:40;;;;;;;4.25;3.50;;;35.00;96.70;;;;;;4974855;28;20042;-69
2023/05/27 14:15:09;;;;;;;3.75;3.45;;;35.00;96.70;;;;;;4975931;28;20035;-69
2023/05/27 14:17:37;;;;;;;3.65;3.35;;;35.10;96.70;;;;;;4958581;28;20038;-69
2023/05/27 14:20:10;;;;;;;6.28;3.80;;;35.20;96.70;;;;;;4978878;28;20046;-70
2023/05/27 14:22:39;;;;;;;3.53;3.22;;;35.50;96.70;;;;;;4954633;28;20118;-70
2023/05/27 14:25:08;;;;;;;4.10;3.40;;;35.60;96.70;;;;;;4955239;28;20055;-69
2023/05/27 14:27:37;;;;;;;5.60;3.78;;;35.90;96.70;;;;;;4960238;28;20049;-69
2023/05/27 14:30:08;;;;;;;4.30;3.42;;;36.10;96.70;;;;;;4957085;28;20047;-70
2023/05/27 14:32:37;;;;;;;3.92;3.35;;;36.40;96.70;;;;;;4955731;28;20057;-70
2023/05/27 14:35:06;;;;;;;4.40;3.72;;;36.60;96.00;;;;;;4959433;28;20047;-70
2023/05/27 14:37:35;;;;;;;4.05;3.17;;;36.80;95.80;;;;;;4957163;28;20112;-69
2023/05/27 14:40:03;;;;;;;5.35;3.10;;;36.90;95.50;;;;;;4959506;28;20047;-69
2023/05/27 14:42:32;;;;;;;4.35;3.33;;;37.10;95.10;;;;;;4957961;28;20043;-70
2023/05/27 14:45:00;;;;;;;5.03;3.72;;;37.10;95.40;;;;;;4960306;28;20038;-70
2023/05/27 14:47:30;;;;;;;4.40;3.47;;;37.00;94.20;;;;;;4955193;28;20408;-70
2023/05/27 14:49:58;;;;;;;4.72;3.40;;;37.10;94.90;;;;;;4951829;28;20039;-71
2023/05/27 14:52:27;;;;;;;6.53;3.30;;;37.40;93.90;;;;;;4958434;28;20488;-70
2023/05/27 14:54:55;;;;;;;4.28;3.30;;;37.70;92.90;;;;;;4956496;28;20047;-70
2023/05/27 14:57:24;;;;;;;4.25;3.10;;;37.80;93.30;;;;;;4953354;28;20050;-70
2023/05/27 14:59:52;;;;;;;4.72;3.40;;;38.00;92.80;;;;;;4954644;28;20047;-70
2023/05/27 15:02:20;;;;;;;6.40;3.67;;;37.90;91.40;;;;;;4955566;28;20051;-71
2023/05/27 15:04:52;;;;;;;3.67;3.38;;;38.00;91.90;;;;;;4955591;28;20149;-69
2023/05/27 15:07:22;;;;;;;6.00;3.55;;;38.20;93.10;;;;;;4956365;28;20050;-70
2023/05/27 15:09:51;;;;;;;5.30;3.50;;;38.20;92.00;;;;;;4950456;28;20592;-69
2023/05/27 15:12:21;;;;;;;7.15;3.25;;;37.90;93.00;;;;;;4957652;28;20047;-71
2023/05/27 15:14:49;;;;;;;3.83;3.47;;;37.90;91.80;;;;;;4953219;28;20505;-70
2023/05/27 15:17:18;;;;;;;4.50;4.03;;;38.20;91.50;;;;;;4956200;28;20790;-70
2023/05/27 15:19:46;;;;;;;4.70;3.65;;;38.30;91.90;;;;;;4957486;28;20045;-70
2023/05/27 15:22:16;;;;;;;4.95;3.50;;;38.10;92.50;;;;;;4971845;28;20068;-70
2023/05/27 15:24:45;;;;;;;5.63;3.38;;;37.20;93.30;;;;;;4960228;28;20051;-70
2023/05/27 15:27:13;;;;;;;4.35;3.75;;;37.80;93.40;;;;;;4979106;28;20105;-72
2023/05/27 15:29:41;;;;;;;4.43;3.45;;;38.20;93.10;;;;;;4955481;28;20404;-69
2023/05/27 15:32:10;;;;;;;4.03;3.58;;;37.90;92.70;;;;;;4981681;28;20054;-69
2023/05/27 15:34:38;;;;;;;4.53;3.42;;;36.70;94.20;;;;;;4958416;28;20069;-69
2023/05/27 15:37:06;;;;;;;4.13;3.38;;;35.70;95.70;;;;;;4981452;28;20435;-73
2023/05/27 15:39:37;;;;;;;8.60;3.50;;;34.90;96.70;;;;;;4963223;28;20038;-71
2023/05/27 15:42:06;;;;;;;3.72;3.17;;;34.10;96.70;;;;;;4962344;28;20065;-69
2023/05/27 15:44:35;;;;;;;4.75;3.38;;;33.20;96.70;;;;;;4968233;28;20050;-70
2023/05/27 15:47:04;;;;;;;5.40;3.50;;;32.90;96.70;;;;;;4968166;28;20666;-70
2023/05/27 15:49:32;;;;;;;6.30;3.88;;;32.50;96.70;;;;;;4985930;28;20050;-69
2023/05/27 15:52:01;;;;;;;3.92;3.53;;;32.20;96.70;;;;;;4955854;28;20042;-70
2023/05/27 15:54:29;;;;;;;6.53;3.45;;;31.80;96.70;;;;;;4981006;28;20053;-70
2023/05/27 15:57:00;;;;;;;4.65;3.80;;;31.50;96.70;;;;;;4984000;28;20055;-71
2023/05/27 15:59:28;;;;;;;4.30;3.72;;;31.20;96.70;;;;;;4966563;28;20042;-70
2023/05/27 16:01:56;;;;;;;6.97;3.25;;;31.00;96.70;;;;;;4961139;28;20105;-69
2023/05/27 16:04:25;;;;;;;4.75;3.75;;;30.80;96.70;;;;;;4963608;28;20116;-70
2023/05/27 16:06:53;;;;;;;5.05;3.72;;;30.60;96.70;;;;;;4982138;28;20128;-70
2023/05/27 16:09:22;;;;;;;5.10;3.90;;;30.50;96.70;;;;;;4977064;28;20042;-70
2023/05/27 16:11:52;;;;;;;5.13;4.00;;;30.30;96.70;;;;;;4980023;28;20046;-71
2023/05/27 16:14:22;;;;;;;4.00;3.70;;;30.10;96.70;;;;;;4960440;28;20038;-70
2023/05/27 16:16:50;;;;;;;4.38;3.97;;;29.90;96.70;;;;;;4960507;28;20573;-70
2023/05/27 16:19:19;;;;;;;5.72;3.70;;;29.70;96.70;;;;;;4981394;28;20129;-71
2023/05/27 16:21:48;;;;;;;6.03;4.15;;;29.60;96.70;;;;;;4981084;28;20137;-70
2023/05/27 16:24:16;;;;;;;4.47;3.67;;;29.40;96.70;;;;;;4958753;28;20047;-70
2023/05/27 16:26:44;;;;;;;6.20;4.15;;;29.30;96.70;;;;;;4977427;28;20035;-71
2023/05/27 16:29:13;;;;;;;6.13;4.50;;;29.20;96.70;;;;;;4983774;28;20045;-70
2023/05/27 16:31:43;;;;;;;5.82;4.70;;;28.90;96.70;;;;;;4980553;28;20042;-70
2023/05/27 16:34:11;;;;;;;8.02;4.93;;;28.70;96.70;;;;;;4980057;28;20057;-71
2023/05/27 16:36:40;;;;;;;6.85;5.03;;;28.50;96.70;;;;;;4958625;28;20045;-71
2023/05/27 16:39:08;;;;;;;5.88;4.38;;;28.30;96.70;;;;;;4981325;28;20496;-71
2023/05/27 16:41:36;;;;;;;6.57;4.80;;;28.00;96.70;;;;;;4963446;28;20039;-70
2023/05/27 16:44:05;;;;;;;7.78;4.55;;;28.00;96.70;;;;;;4961895;28;20053;-69
2023/05/27 16:46:34;;;;;;;7.90;4.88;;;27.90;96.70;;;;;;4979354;28;20043;-71
2023/05/27 16:49:04;;;;;;;6.30;4.95;;;27.80;96.70;;;;;;4945706;28;20121;-71
2023/05/27 16:51:33;;;;;;;7.07;5.38;;;27.80;96.70;;;;;;4976387;28;20046;-70
2023/05/27 16:54:01;;;;;;;6.97;4.82;;;28.10;96.70;;;;;;4976004;28;20508;-70
2023/05/27 16:56:30;;;;;;;6.30;4.28;;;28.00;96.70;;;;;;4976915;28;20065;-70
2023/05/27 16:58:58;;;;;;;6.00;5.30;;;27.90;96.70;;;;;;4961128;28;20661;-70
2023/05/27 17:01:26;;;;;;;5.88;4.80;;;27.70;96.70;;;;;;4984001;28;20523;-69